Deering Airport Deering US
ICAO: PADE
IATA:
Category: Medium
Scheduled Services:

Elevation: 21 ft
TransAlt. 18000 ft.

Airport Communications:
ANCHORAGE CNTR:119.2
ASOS:135.5
CTAF:122.9

PADE Zoom In..

If you have problems with the map follow the link
https://www.worldairports.se/pages/airport.php?
ICAO=PADE

Runways:

(A) RW 02 length 3320 ft width 75 ft
---- / hdg 21

(B) RW 11 length 2660 ft width 75 ft
---- / hdg 110

(C) RW 20 length 3320 ft width 75 ft
---- / hdg 201

(D) RW 29 length 2660 ft width 75 ft
---- / hdg 290

Location; PADE
Day. 19 / Time. 19.53 Zulu
* Altimeter: 29.28
* Temperature: -15° c. -5°f.
* Wind from: 250° Speed 27 kn with Gusts up to 33 kn.
Dewpoint: -17° c.
Visibility: 1/4 Statute Miles.
Clouds: Few 900 ft.
Clouds: Overcast 1600 ft.
Conditions: Light Snow.Conditions: Freezing fog.

PADE 191953Z AUTO 25027G33KT 1/4SM -SN FZFG FEW009 OVC016 M15/M17 A2928 RMK AO2 PK WND 25034/1940 SNB1856 SLP916 P0000 T11501172 TSNO $


Wind From 250°
Speed 27 kn.

 
 
jpsmedia worldairports.se 2020   terms of use